Time;durP1;ratioP1;P1;durP2;ratioP2;P2;SDS_P1;SDS_P2;PMS_P1;PMS_P2;Temp;Humidity;BMP_temperature;BMP_pressure;BME280_temperature;BME280_humidity;BME280_pressure;Samples;Min_cycle;Max_cycle;Signal;HPM_P1;HPM_P2
2024/01/25 00:01:28;;;;;;;;;6.00;5.25;;;;;10.91;100.00;98462.94;6287110;27;96536;-54
2024/01/25 00:04:33;;;;;;;;;4.80;4.20;;;;;10.85;100.00;98481.69;6273116;27;96368;-55
2024/01/25 00:07:45;;;;;;;;;4.00;4.00;;;;;10.90;100.00;98474.81;6260832;27;96422;-55
2024/01/25 00:10:48;;;;;;;;;4.00;4.00;;;;;10.98;100.00;98479.84;6261230;27;96532;-55
2024/01/25 00:13:52;;;;;;;;;4.80;4.40;;;;;11.13;100.00;98478.31;6260829;27;96451;-55
2024/01/25 00:16:55;;;;;;;;;4.00;3.50;;;;;11.02;100.00;98492.63;6261774;27;96391;-54
2024/01/25 00:20:00;;;;;;;;;2.25;2.00;;;;;11.07;100.00;98487.34;6261356;27;96501;-54
2024/01/25 00:23:03;;;;;;;;;3.00;2.67;;;;;11.15;100.00;98497.78;6259869;27;96354;-54
2024/01/25 00:26:06;;;;;;;;;4.00;4.00;;;;;11.15;100.00;98500.47;6261310;27;96329;-55
2024/01/25 00:29:09;;;;;;;;;4.00;3.00;;;;;11.27;100.00;98493.22;6262278;27;96689;-55
2024/01/25 00:32:13;;;;;;;;;4.00;4.00;;;;;11.30;100.00;98498.13;6262390;27;96308;-55
2024/01/25 00:35:18;;;;;;;;;5.00;4.20;;;;;11.30;100.00;98497.31;6259840;27;96568;-55
2024/01/25 00:38:22;;;;;;;;;4.80;4.00;;;;;11.17;100.00;98500.25;6268917;27;97031;-54
2024/01/25 00:41:25;;;;;;;;;5.00;4.00;;;;;11.18;100.00;98489.25;6277890;27;96639;-55
2024/01/25 00:44:29;;;;;;;;;4.40;4.00;;;;;11.15;100.00;98484.28;6260870;27;96309;-55
2024/01/25 00:47:32;;;;;;;;;3.00;3.00;;;;;11.14;100.00;98469.16;6261400;27;96411;-54
2024/01/25 00:50:38;;;;;;;;;4.00;3.60;;;;;11.28;100.00;98494.88;6265125;27;96472;-54
2024/01/25 00:53:42;;;;;;;;;4.60;4.60;;;;;11.26;100.00;98491.56;6274712;27;96900;-55
2024/01/25 00:56:45;;;;;;;;;4.00;3.20;;;;;11.28;100.00;98499.44;6275703;27;96389;-55
2024/01/25 00:59:49;;;;;;;;;3.50;3.00;;;;;11.33;100.00;98496.84;6283193;27;96426;-54
2024/01/25 01:02:54;;;;;;;;;4.80;4.80;;;;;11.33;100.00;98504.13;6252956;27;96622;-55
2024/01/25 01:05:59;;;;;;;;;5.00;4.00;;;;;11.32;100.00;98510.56;6262275;27;96515;-55
2024/01/25 01:09:03;;;;;;;;;3.20;3.00;;;;;11.33;100.00;98491.47;6271394;27;96252;-55
2024/01/25 01:12:07;;;;;;;;;4.00;4.00;;;;;11.30;100.00;98484.63;6262732;27;96387;-55
2024/01/25 01:15:10;;;;;;;;;2.60;2.60;;;;;11.28;100.00;98477.84;6273577;27;96918;-55
2024/01/25 01:18:13;;;;;;;;;3.00;1.00;;;;;11.35;100.00;98489.31;6263337;27;98740;-55
2024/01/25 01:21:18;;;;;;;;;4.00;3.00;;;;;11.48;100.00;98488.28;6275548;27;96284;-54
2024/01/25 01:24:21;;;;;;;;;4.40;3.40;;;;;11.48;100.00;98491.78;6269408;27;96485;-55
2024/01/25 01:27:24;;;;;;;;;4.00;3.00;;;;;11.38;100.00;98477.25;6276414;27;97529;-55
2024/01/25 01:30:27;;;;;;;;;5.00;5.00;;;;;11.47;100.00;98482.03;6264679;27;96733;-55
2024/01/25 01:33:30;;;;;;;;;4.00;3.00;;;;;11.46;100.00;98476.88;6272307;27;96949;-54
2024/01/25 01:36:35;;;;;;;;;3.60;3.60;;;;;11.39;100.00;98458.09;6264529;27;96294;-54
2024/01/25 01:39:38;;;;;;;;;6.00;5.00;;;;;11.44;100.00;98478.97;6267514;27;97136;-54
2024/01/25 01:42:41;;;;;;;;;4.00;4.00;;;;;11.52;100.00;98468.66;6262051;27;97570;-55
2024/01/25 01:45:45;;;;;;;;;4.00;4.00;;;;;11.44;100.00;98477.09;6274583;27;96271;-54
2024/01/25 01:48:48;;;;;;;;;6.00;4.20;;;;;11.47;100.00;98486.63;6289318;27;96708;-54
2024/01/25 01:51:54;;;;;;;;;5.25;4.25;;;;;11.36;100.00;98487.44;6274595;27;96779;-54
2024/01/25 01:54:58;;;;;;;;;4.60;4.60;;;;;11.46;100.00;98491.19;6262371;27;97485;-55
2024/01/25 01:58:02;;;;;;;;;4.20;4.20;;;;;11.43;100.00;98482.75;6267605;27;97125;-55
2024/01/25 02:01:06;;;;;;;;;3.00;3.00;;;;;11.39;100.00;98490.50;6253480;27;96867;-55
2024/01/25 02:04:09;;;;;;;;;3.00;3.00;;;;;11.36;100.00;98485.56;6230550;22;98736;-56
2024/01/25 02:07:14;;;;;;;;;6.60;5.00;;;;;11.24;100.00;98482.03;6212086;28;96329;-55
2024/01/25 02:10:17;;;;;;;;;5.00;5.00;;;;;11.08;100.00;98470.13;6203128;28;96357;-55
2024/01/25 02:13:21;;;;;;;;;3.00;3.00;;;;;11.28;100.00;98481.38;6214300;28;96354;-55
2024/01/25 02:16:25;;;;;;;;;3.00;3.00;;;;;11.30;100.00;98487.34;6212839;28;97260;-55
2024/01/25 02:19:28;;;;;;;;;6.00;4.00;;;;;11.31;100.00;98469.28;6199906;28;96475;-55
2024/01/25 02:22:33;;;;;;;;;6.00;3.40;;;;;11.15;100.00;98483.47;6213457;28;96620;-56
2024/01/25 02:25:36;;;;;;;;;5.00;4.00;;;;;11.17;100.00;98484.88;6210761;28;97836;-56
2024/01/25 02:28:40;;;;;;;;;6.40;5.80;;;;;11.20;100.00;98479.00;6207595;28;96304;-55
2024/01/25 02:31:43;;;;;;;;;6.00;6.00;;;;;11.18;100.00;98481.13;6210403;28;97300;-56
2024/01/25 02:34:46;;;;;;;;;6.00;6.00;;;;;11.13;100.00;98474.81;6189214;28;96756;-56
2024/01/25 02:37:51;;;;;;;;;5.00;5.00;;;;;11.20;100.00;98470.91;6206789;28;96253;-56
2024/01/25 02:40:54;;;;;;;;;4.00;4.00;;;;;11.27;100.00;98463.53;6211152;28;96610;-56
2024/01/25 02:43:57;;;;;;;;;3.00;2.00;;;;;11.26;100.00;98452.97;6212252;28;96538;-56
2024/01/25 02:47:01;;;;;;;;;3.60;3.00;;;;;11.24;100.00;98471.25;6210312;28;96915;-56
2024/01/25 02:50:04;;;;;;;;;5.20;3.80;;;;;11.17;100.00;98460.59;6211880;28;96975;-56
2024/01/25 02:53:09;;;;;;;;;4.60;4.60;;;;;11.28;100.00;98475.16;6194903;28;96773;-56
2024/01/25 02:56:12;;;;;;;;;5.00;4.00;;;;;11.21;100.00;98452.84;6205889;28;96445;-56
2024/01/25 02:59:15;;;;;;;;;5.00;4.00;;;;;11.16;100.00;98455.44;6212171;28;97150;-56
2024/01/25 03:02:19;;;;;;;;;3.00;3.00;;;;;11.10;100.00;98468.00;6211724;28;96761;-56
2024/01/25 03:05:22;;;;;;;;;4.00;3.67;;;;;11.08;100.00;98467.41;6212803;28;97214;-56
2024/01/25 03:08:27;;;;;;;;;3.00;3.00;;;;;11.21;100.00;98477.13;6207738;28;96802;-56
2024/01/25 03:11:30;;;;;;;;;2.00;1.00;;;;;11.33;100.00;98466.34;6197025;28;97381;-56
2024/01/25 03:14:33;;;;;;;;;2.00;2.00;;;;;11.31;100.00;98477.38;6195999;28;96372;-56
2024/01/25 03:17:36;;;;;;;;;2.00;2.00;;;;;11.35;100.00;98472.31;6199095;28;97046;-56
2024/01/25 03:20:39;;;;;;;;;2.00;2.00;;;;;11.41;100.00;98469.50;6201219;28;96678;-56
2024/01/25 03:23:44;;;;;;;;;3.00;3.00;;;;;11.23;100.00;98478.56;6187328;28;96815;-56
2024/01/25 03:26:48;;;;;;;;;6.00;4.00;;;;;11.20;100.00;98468.22;6212057;28;96615;-56
2024/01/25 03:29:52;;;;;;;;;4.00;3.60;;;;;11.14;100.00;98471.84;6210883;28;97511;-56
2024/01/25 03:32:55;;;;;;;;;5.60;5.40;;;;;11.28;100.00;98472.44;6214857;28;96322;-56
2024/01/25 03:35:58;;;;;;;;;2.00;2.00;;;;;11.27;100.00;98465.41;6222966;28;96604;-56
2024/01/25 03:39:03;;;;;;;;;5.00;4.00;;;;;11.25;100.00;98467.50;6205464;28;96314;-56
2024/01/25 03:42:07;;;;;;;;;4.00;4.00;;;;;11.29;100.00;98472.19;6188025;28;96354;-56
2024/01/25 03:45:10;;;;;;;;;3.00;3.00;;;;;11.29;100.00;98463.28;6199031;28;97459;-56
2024/01/25 03:48:14;;;;;;;;;3.40;3.40;;;;;11.47;100.00;98500.13;6211789;28;96364;-56
2024/01/25 03:51:17;;;;;;;;;2.25;2.00;;;;;11.37;100.00;98505.28;6195572;28;96593;-56
2024/01/25 03:54:21;;;;;;;;;2.80;2.80;;;;;11.50;100.00;98510.44;6208788;28;96273;-56
2024/01/25 03:57:24;;;;;;;;;3.00;3.00;;;;;11.55;100.00;98518.63;6209168;28;96383;-56
2024/01/25 04:00:28;;;;;;;;;3.00;3.00;;;;;11.58;100.00;98508.19;6210922;28;97559;-56
2024/01/25 04:03:31;;;;;;;;;3.20;3.00;;;;;11.52;100.00;98517.25;6209431;28;96652;-56
2024/01/25 04:06:34;;;;;;;;;4.00;3.40;;;;;11.54;100.00;98534.03;6211896;28;96378;-56
2024/01/25 04:09:39;;;;;;;;;2.00;2.00;;;;;11.46;100.00;98530.88;6211296;28;96281;-56
2024/01/25 04:12:43;;;;;;;;;5.00;3.60;;;;;11.19;100.00;98536.72;6209021;28;96693;-55
2024/01/25 04:15:46;;;;;;;;;2.00;2.00;;;;;11.08;100.00;98520.53;6213802;28;96452;-53
2024/01/25 04:18:49;;;;;;;;;4.00;3.00;;;;;10.98;100.00;98518.44;6214755;28;96273;-53
2024/01/25 04:21:53;;;;;;;;;3.00;3.00;;;;;10.78;100.00;98516.06;6213522;28;96846;-53
2024/01/25 04:24:57;;;;;;;;;4.00;3.00;;;;;10.81;100.00;98523.66;6217605;28;96722;-53
2024/01/25 04:28:01;;;;;;;;;5.00;5.00;;;;;10.72;100.00;98508.88;6221434;28;96965;-53
2024/01/25 04:31:05;;;;;;;;;2.00;2.00;;;;;10.69;100.00;98501.28;6207796;28;96716;-55
2024/01/25 04:34:08;;;;;;;;;4.00;4.00;;;;;10.43;100.00;98470.16;6214226;28;97391;-52
2024/01/25 04:37:11;;;;;;;;;4.00;3.00;;;;;10.61;100.00;98490.81;6215061;28;96195;-53
2024/01/25 04:40:16;;;;;;;;;4.00;3.00;;;;;10.61;100.00;98504.28;6219894;28;96897;-52
2024/01/25 04:43:19;;;;;;;;;2.50;2.00;;;;;10.65;100.00;98496.56;6219141;28;96280;-53
2024/01/25 04:46:22;;;;;;;;;3.60;2.60;;;;;10.69;100.00;98493.19;6215097;28;96350;-53
2024/01/25 04:49:25;;;;;;;;;2.00;2.00;;;;;10.81;100.00;98491.31;6221953;28;96243;-52
2024/01/25 04:52:29;;;;;;;;;2.80;2.00;;;;;10.86;100.00;98491.44;6221876;28;97061;-54
2024/01/25 04:55:33;;;;;;;;;4.00;3.00;;;;;10.98;100.00;98494.16;6230035;27;96486;-56
2024/01/25 04:58:36;;;;;;;;;5.80;4.40;;;;;10.88;100.00;98482.28;6218948;28;96505;-53
2024/01/25 05:01:39;;;;;;;;;3.00;3.00;;;;;10.89;100.00;98500.13;6216279;28;97270;-52
2024/01/25 05:04:43;;;;;;;;;3.00;2.50;;;;;10.88;100.00;98496.59;6217543;28;96382;-52
2024/01/25 05:07:48;;;;;;;;;3.00;3.00;;;;;10.96;100.00;98490.84;6211480;28;96318;-53
2024/01/25 05:10:53;;;;;;;;;3.75;3.75;;;;;10.94;100.00;98498.38;6221895;27;97752;-53
2024/01/25 05:13:56;;;;;;;;;2.00;2.00;;;;;11.03;100.00;98493.44;6213710;28;96288;-52
2024/01/25 05:16:59;;;;;;;;;4.80;3.00;;;;;10.99;100.00;98503.06;6213700;28;96384;-52
2024/01/25 05:20:02;;;;;;;;;4.00;3.00;;;;;11.07;100.00;98494.63;6213506;28;96903;-53
2024/01/25 05:23:06;;;;;;;;;5.00;4.00;;;;;11.03;100.00;98505.06;6214596;28;97057;-59
2024/01/25 05:26:10;;;;;;;;;5.00;3.40;;;;;11.04;100.00;98504.00;6234724;28;96403;-58
2024/01/25 05:29:14;;;;;;;;;2.00;2.00;;;;;11.08;100.00;98504.38;6237445;28;96903;-59
2024/01/25 05:32:17;;;;;;;;;3.00;2.00;;;;;10.98;100.00;98507.63;6239076;28;96546;-59
2024/01/25 05:35:20;;;;;;;;;2.75;2.00;;;;;10.93;100.00;98515.59;6239822;28;96366;-57
2024/01/25 05:38:23;;;;;;;;;2.80;2.00;;;;;11.03;100.00;98513.16;6240893;28;96731;-58
2024/01/25 05:41:27;;;;;;;;;3.00;2.00;;;;;11.02;100.00;98516.91;6241935;28;96709;-59
2024/01/25 05:44:30;;;;;;;;;2.80;2.80;;;;;10.86;100.00;98517.56;6238058;28;97079;-58
2024/01/25 05:47:34;;;;;;;;;3.00;3.00;;;;;11.01;100.00;98509.03;6223483;28;96409;-59
2024/01/25 05:50:37;;;;;;;;;3.00;3.00;;;;;11.11;100.00;98507.41;6241369;28;96316;-59
2024/01/25 05:53:40;;;;;;;;;4.00;3.00;;;;;10.99;100.00;98511.16;6240547;28;96191;-59
2024/01/25 05:56:45;;;;;;;;;3.25;3.00;;;;;11.02;100.00;98497.19;6231307;28;96927;-57
2024/01/25 05:59:48;;;;;;;;;3.40;3.00;;;;;10.96;100.00;98512.44;6236214;28;96336;-58
2024/01/25 06:02:51;;;;;;;;;3.60;3.00;;;;;10.94;100.00;98500.25;6239150;28;96882;-58
2024/01/25 06:05:54;;;;;;;;;4.00;2.80;;;;;10.83;100.00;98507.28;6236002;28;96394;-57
2024/01/25 06:08:57;;;;;;;;;3.40;3.00;;;;;10.78;100.00;98507.97;6235748;28;97270;-59
2024/01/25 06:12:15;;;;;;;;;3.00;2.25;;;;;10.83;100.00;98520.75;6254468;28;98697;-59
2024/01/25 06:15:18;;;;;;;;;2.00;1.60;;;;;10.83;100.00;98509.97;6237155;28;96341;-59
2024/01/25 06:18:22;;;;;;;;;3.40;2.60;;;;;10.80;100.00;98502.31;6239634;28;97236;-58
2024/01/25 06:21:26;;;;;;;;;4.00;4.00;;;;;10.81;100.00;98482.41;6239819;28;96260;-59
2024/01/25 06:24:30;;;;;;;;;3.00;3.00;;;;;10.87;100.00;98500.34;6237811;28;98102;-60
2024/01/25 06:27:34;;;;;;;;;3.00;3.00;;;;;10.91;100.00;98495.31;6236955;28;96512;-59
2024/01/25 06:30:38;;;;;;;;;4.00;3.40;;;;;10.91;100.00;98523.09;6236458;28;96270;-57
2024/01/25 06:33:41;;;;;;;;;3.40;3.00;;;;;10.74;100.00;98512.19;6233145;28;97009;-57
2024/01/25 06:36:45;;;;;;;;;3.00;3.00;;;;;10.74;100.00;98522.16;6235649;28;96301;-58
2024/01/25 06:39:48;;;;;;;;;3.40;2.00;;;;;10.69;100.00;98505.84;6234730;28;96520;-58
2024/01/25 06:42:53;;;;;;;;;4.00;3.00;;;;;10.65;100.00;98523.53;6234145;28;96312;-56
2024/01/25 06:45:56;;;;;;;;;4.80;3.00;;;;;10.74;100.00;98519.44;6212505;28;96709;-59
2024/01/25 06:48:59;;;;;;;;;3.00;3.00;;;;;10.71;100.00;98522.59;6215993;28;96324;-58
2024/01/25 06:52:03;;;;;;;;;3.00;2.00;;;;;10.53;100.00;98534.28;6207669;28;96636;-58
2024/01/25 06:55:07;;;;;;;;;1.00;1.00;;;;;10.16;100.00;98482.38;6204097;28;96513;-58
2024/01/25 06:58:11;;;;;;;;;3.60;3.00;;;;;10.42;100.00;98525.09;6209073;28;97626;-58
2024/01/25 07:01:21;;;;;;;;;2.00;2.00;;;;;10.34;100.00;98541.59;6202943;28;96513;-56
2024/01/25 07:04:25;;;;;;;;;2.60;2.00;;;;;10.33;100.00;98547.22;6211198;28;96729;-57
2024/01/25 07:07:28;;;;;;;;;4.00;4.00;;;;;10.34;100.00;98538.06;6213465;28;96669;-57
2024/01/25 07:10:32;;;;;;;;;4.00;3.00;;;;;10.36;100.00;98525.22;6212247;28;96310;-57
2024/01/25 07:13:36;;;;;;;;;2.00;2.00;;;;;10.33;100.00;98526.47;6212050;28;96316;-57
2024/01/25 07:16:39;;;;;;;;;5.00;5.00;;;;;10.24;100.00;98525.16;6213460;28;96302;-57
2024/01/25 07:19:42;;;;;;;;;3.00;3.00;;;;;10.21;100.00;98528.31;6207207;28;96350;-57
2024/01/25 07:22:46;;;;;;;;;4.60;4.00;;;;;10.14;100.00;98527.53;6210621;28;96138;-57
2024/01/25 07:25:49;;;;;;;;;6.00;6.00;;;;;10.21;100.00;98528.31;6213060;28;96347;-57
2024/01/25 07:28:57;;;;;;;;;4.00;4.00;;;;;10.10;100.00;98533.59;6208513;28;96353;-57
2024/01/25 07:32:01;;;;;;;;;3.00;2.60;;;;;10.13;100.00;98517.81;6212152;28;98052;-58
2024/01/25 07:35:05;;;;;;;;;4.00;3.00;;;;;10.08;100.00;98517.66;6206992;28;96740;-58
2024/01/25 07:38:08;;;;;;;;;4.00;3.00;;;;;10.20;100.00;98523.97;6210751;28;96496;-58
2024/01/25 07:41:11;;;;;;;;;5.75;3.00;;;;;10.18;100.00;98525.22;6212900;28;96360;-58
2024/01/25 07:44:16;;;;;;;;;5.00;4.00;;;;;10.18;100.00;98519.84;6208819;28;96442;-58
2024/01/25 07:47:19;;;;;;;;;3.40;3.00;;;;;10.05;100.00;98503.84;6211795;28;96898;-58
2024/01/25 07:50:23;;;;;;;;;4.00;4.00;;;;;10.10;100.00;98528.22;6212643;28;96943;-58
2024/01/25 07:53:26;;;;;;;;;4.00;3.40;;;;;10.17;100.00;98554.03;6212960;28;96825;-56
2024/01/25 07:56:29;;;;;;;;;3.80;3.80;;;;;10.12;100.00;98548.47;6211628;28;96569;-55
2024/01/25 07:59:34;;;;;;;;;4.25;4.25;;;;;10.06;100.00;98551.28;6209799;28;96510;-55
2024/01/25 08:02:38;;;;;;;;;2.20;2.00;;;;;10.08;100.00;98557.25;6211474;28;96724;-56
2024/01/25 08:05:41;;;;;;;;;5.00;4.00;;;;;10.10;100.00;98574.84;6211969;28;96260;-55
2024/01/25 08:08:53;;;;;;;;;3.80;3.00;;;;;10.15;100.00;98576.84;6204990;28;96869;-55
2024/01/25 08:11:56;;;;;;;;;5.40;5.40;;;;;10.08;100.00;98574.22;6210400;28;96527;-55
2024/01/25 08:15:00;;;;;;;;;4.60;4.60;;;;;10.07;100.00;98596.81;6211107;28;96480;-55
2024/01/25 08:18:05;;;;;;;;;5.00;4.25;;;;;9.92;100.00;98585.63;6211981;28;96922;-55
2024/01/25 08:21:09;;;;;;;;;4.50;3.00;;;;;9.81;100.00;98571.03;6199129;28;96278;-55
2024/01/25 08:24:12;;;;;;;;;5.00;4.00;;;;;9.89;100.00;98573.41;6210991;28;96272;-55
2024/01/25 08:27:15;;;;;;;;;4.20;3.00;;;;;9.81;100.00;98570.22;6209178;28;96515;-55
2024/01/25 08:30:20;;;;;;;;;7.00;4.00;;;;;9.76;100.00;98576.28;6212072;28;96893;-55
2024/01/25 08:33:24;;;;;;;;;4.00;3.00;;;;;9.75;100.00;98576.50;6210521;28;96820;-55
2024/01/25 08:36:27;;;;;;;;;6.25;5.00;;;;;9.87;100.00;98577.41;6211085;28;96345;-55
2024/01/25 08:39:30;;;;;;;;;3.67;3.00;;;;;9.85;100.00;98574.09;6208967;28;97090;-55
2024/01/25 08:42:34;;;;;;;;;5.60;3.60;;;;;9.79;100.00;98578.50;6211972;28;96747;-55
2024/01/25 08:45:39;;;;;;;;;5.60;3.60;;;;;9.89;100.00;98573.41;6210351;28;96277;-55
2024/01/25 08:48:42;;;;;;;;;5.00;4.60;;;;;9.81;100.00;98576.41;6211446;28;96312;-55
2024/01/25 08:51:45;;;;;;;;;3.00;3.00;;;;;9.86;100.00;98573.06;6211926;28;96288;-56
2024/01/25 08:54:49;;;;;;;;;5.00;4.75;;;;;9.91;100.00;98573.19;6212061;28;96532;-56
2024/01/25 08:57:52;;;;;;;;;5.60;5.00;;;;;9.79;100.00;98569.59;6210463;28;96283;-56
2024/01/25 09:00:56;;;;;;;;;5.33;4.00;;;;;9.89;100.00;98573.41;6209073;28;97072;-56
2024/01/25 09:04:02;;;;;;;;;6.00;5.00;;;;;9.97;100.00;98578.50;6208317;28;96589;-56
2024/01/25 09:07:06;;;;;;;;;5.00;5.00;;;;;9.99;100.00;98578.28;6208652;28;96702;-56
2024/01/25 09:10:11;;;;;;;;;4.00;3.00;;;;;10.08;100.00;98568.00;6210237;28;96565;-56
2024/01/25 09:13:15;;;;;;;;;4.20;4.20;;;;;10.23;100.00;98561.22;6213756;28;96376;-56
2024/01/25 09:16:19;;;;;;;;;4.00;3.50;;;;;10.35;100.00;98564.81;6202933;28;96531;-56
2024/01/25 09:19:23;;;;;;;;;4.00;4.00;;;;;10.35;100.00;98570.19;6215524;28;96313;-56
2024/01/25 09:22:26;;;;;;;;;4.50;4.00;;;;;10.25;100.00;98559.13;6214595;28;96595;-56
2024/01/25 09:25:30;;;;;;;;;5.00;3.20;;;;;10.37;100.00;98561.84;6215694;28;96251;-55
2024/01/25 09:28:33;;;;;;;;;4.00;4.00;;;;;10.39;100.00;98566.00;6215136;28;97511;-56
2024/01/25 09:31:38;;;;;;;;;6.00;4.00;;;;;10.48;100.00;98573.75;6214896;28;96411;-56
2024/01/25 09:34:42;;;;;;;;;4.00;4.00;;;;;10.46;100.00;98575.88;6221271;28;96895;-56
2024/01/25 09:37:46;;;;;;;;;4.00;3.00;;;;;10.41;100.00;98566.56;6214634;28;96270;-56
2024/01/25 09:40:49;;;;;;;;;5.00;4.50;;;;;10.49;100.00;98559.22;6215352;28;96701;-56
2024/01/25 09:43:54;;;;;;;;;4.20;4.20;;;;;10.48;100.00;98569.19;6214979;28;96935;-56
2024/01/25 09:46:59;;;;;;;;;5.60;5.00;;;;;10.42;100.00;98578.16;6214968;28;96345;-56
2024/01/25 09:50:02;;;;;;;;;5.00;4.00;;;;;10.44;100.00;98581.47;6214509;28;96166;-56
2024/01/25 09:53:07;;;;;;;;;5.75;4.75;;;;;10.56;100.00;98581.50;6212863;28;96871;-56
2024/01/25 09:56:13;;;;;;;;;4.40;4.00;;;;;10.69;100.00;98576.75;6214554;28;96341;-56
2024/01/25 09:59:16;;;;;;;;;5.00;5.00;;;;;10.67;100.00;98561.84;6214717;28;96337;-55
2024/01/25 10:02:21;;;;;;;;;7.50;6.00;;;;;10.77;100.00;98572.91;6213650;28;96534;-55
2024/01/25 10:05:24;;;;;;;;;6.40;5.40;;;;;10.53;100.00;98563.94;6214376;28;96279;-56
2024/01/25 10:08:27;;;;;;;;;6.00;5.00;;;;;10.64;100.00;98579.31;6221457;28;97740;-56
2024/01/25 10:11:35;;;;;;;;;3.00;3.00;;;;;10.71;100.00;98580.03;6214578;28;97006;-56
2024/01/25 10:14:42;;;;;;;;;6.00;4.00;;;;;10.77;100.00;98598.00;6202015;28;96412;-57
2024/01/25 10:17:47;;;;;;;;;5.00;4.00;;;;;10.74;100.00;98586.84;6213590;28;96299;-56
2024/01/25 10:21:10;;;;;;;;;7.00;6.00;;;;;10.87;100.00;98589.34;6207864;28;96386;-56
2024/01/25 10:24:14;;;;;;;;;6.20;6.20;;;;;10.85;100.00;98588.75;6219386;28;96265;-55
2024/01/25 10:27:18;;;;;;;;;6.00;5.00;;;;;10.76;100.00;98585.56;6214882;27;96681;-55
2024/01/25 10:30:22;;;;;;;;;5.00;4.20;;;;;10.60;100.00;98596.19;6213891;28;96407;-55
2024/01/25 10:33:28;;;;;;;;;5.00;5.00;;;;;10.61;100.00;98590.53;6212826;28;96515;-56
2024/01/25 10:36:33;;;;;;;;;5.00;5.00;;;;;10.52;100.00;98591.09;6209771;28;96560;-56
2024/01/25 10:39:37;;;;;;;;;4.00;4.00;;;;;10.52;100.00;98591.91;6200886;28;96510;-56
2024/01/25 10:42:40;;;;;;;;;6.00;5.00;;;;;10.51;100.00;98586.75;6210675;28;96299;-55
2024/01/25 10:45:44;;;;;;;;;6.50;5.00;;;;;10.46;100.00;98603.59;6213277;28;97691;-55
2024/01/25 10:48:49;;;;;;;;;4.00;4.00;;;;;10.56;100.00;98594.97;6211149;28;96309;-55
2024/01/25 10:51:54;;;;;;;;;4.00;3.00;;;;;10.69;100.00;98584.03;6213527;28;96987;-55
2024/01/25 10:54:57;;;;;;;;;4.00;3.40;;;;;10.68;100.00;98598.56;6207906;28;96523;-55
2024/01/25 10:58:01;;;;;;;;;5.80;3.20;;;;;10.67;100.00;98578.84;6208416;28;96295;-55
2024/01/25 11:01:10;;;;;;;;;5.00;4.00;;;;;10.66;100.00;98590.69;6212387;28;96567;-56
2024/01/25 11:04:20;;;;;;;;;5.00;4.20;;;;;10.80;100.00;98597.53;6213000;28;96377;-55
2024/01/25 11:07:24;;;;;;;;;4.50;3.50;;;;;10.77;100.00;98594.47;6213822;28;96525;-55
2024/01/25 11:10:27;;;;;;;;;4.00;4.00;;;;;10.63;100.00;98584.94;6213042;28;96253;-55
2024/01/25 11:13:33;;;;;;;;;4.80;4.00;;;;;10.79;100.00;98603.16;6212755;28;96416;-56
2024/01/25 11:16:41;;;;;;;;;3.00;2.50;;;;;10.82;100.00;98606.22;6212734;28;96829;-56
2024/01/25 11:19:46;;;;;;;;;7.00;5.00;;;;;10.80;100.00;98599.41;6213003;28;96527;-56
2024/01/25 11:22:50;;;;;;;;;4.20;2.00;;;;;10.78;100.00;98599.66;6213481;28;96849;-56
2024/01/25 11:25:56;;;;;;;;;5.40;5.00;;;;;10.76;100.00;98584.72;6213630;28;97020;-56
2024/01/25 11:29:00;;;;;;;;;4.80;4.00;;;;;10.57;100.00;98583.16;6200394;28;96213;-55
2024/01/25 11:32:05;;;;;;;;;7.00;6.00;;;;;10.68;100.00;98588.59;6211987;28;96521;-55
2024/01/25 11:35:13;;;;;;;;;3.00;3.00;;;;;10.84;100.00;98582.56;6211249;28;96570;-55
2024/01/25 11:38:16;;;;;;;;;5.00;3.60;;;;;10.83;100.00;98585.47;6211822;28;96298;-56
2024/01/25 11:41:20;;;;;;;;;5.00;4.00;;;;;10.74;100.00;98605.72;6211930;28;97012;-56
2024/01/25 11:44:24;;;;;;;;;4.00;2.40;;;;;10.88;100.00;98590.16;6212406;28;96488;-56
2024/01/25 11:47:27;;;;;;;;;6.40;4.40;;;;;10.80;100.00;98610.19;6211279;28;98127;-56
2024/01/25 11:50:32;;;;;;;;;4.00;4.00;;;;;10.93;100.00;98617.28;6211633;28;96367;-56
2024/01/25 11:53:35;;;;;;;;;5.40;5.00;;;;;10.93;100.00;98617.28;6201067;28;96419;-56
2024/01/25 11:56:40;;;;;;;;;3.00;2.20;;;;;11.01;100.00;98619.63;6212139;28;96383;-56
2024/01/25 11:59:45;;;;;;;;;4.50;4.00;;;;;10.96;100.00;98606.84;6210722;28;96333;-56
2024/01/25 12:02:49;;;;;;;;;4.00;4.00;;;;;10.84;100.00;98606.81;6211410;28;96479;-56
2024/01/25 12:05:54;;;;;;;;;4.00;3.00;;;;;10.81;100.00;98641.50;6210985;28;96305;-56
2024/01/25 12:09:08;;;;;;;;;5.00;4.40;;;;;10.93;100.00;98642.38;6211877;28;96320;-56
2024/01/25 12:12:12;;;;;;;;;7.00;5.25;;;;;10.97;100.00;98645.41;6211889;28;97529;-55
2024/01/25 12:15:15;;;;;;;;;5.40;5.00;;;;;11.04;100.00;98654.25;6220662;28;96306;-55
2024/01/25 12:18:18;;;;;;;;;4.00;3.60;;;;;10.90;100.00;98645.50;6214763;28;96451;-57
2024/01/25 12:21:24;;;;;;;;;5.00;4.25;;;;;10.80;100.00;98647.94;6211160;28;96451;-56
2024/01/25 12:24:27;;;;;;;;;4.00;3.00;;;;;10.85;100.00;98653.47;6211516;28;96213;-55
2024/01/25 12:27:32;;;;;;;;;4.00;3.00;;;;;10.88;100.00;98642.25;6211103;28;96419;-56
2024/01/25 12:30:35;;;;;;;;;5.00;4.00;;;;;10.83;100.00;98640.22;6211289;28;96427;-55
2024/01/25 12:33:38;;;;;;;;;5.00;4.00;;;;;10.93;100.00;98655.03;6210756;28;97157;-57
2024/01/25 12:36:43;;;;;;;;;5.00;4.00;;;;;10.94;100.00;98645.91;6210856;28;97188;-58
2024/01/25 12:39:47;;;;;;;;;6.00;5.00;;;;;10.97;100.00;98651.63;6197096;28;96685;-58
2024/01/25 12:42:50;;;;;;;;;4.20;4.20;;;;;11.00;100.00;98655.75;6210628;28;96671;-58
2024/01/25 12:45:53;;;;;;;;;4.00;4.00;;;;;11.11;100.00;98653.09;6213933;28;96446;-58
2024/01/25 12:49:05;;;;;;;;;4.80;4.20;;;;;11.08;100.00;98653.56;6215359;28;97449;-58
2024/01/25 12:52:11;;;;;;;;;5.00;3.00;;;;;11.10;100.00;98645.22;6215420;28;96343;-58
2024/01/25 12:55:14;;;;;;;;;5.00;3.00;;;;;11.05;100.00;98651.31;6215635;28;96678;-58
2024/01/25 12:58:18;;;;;;;;;4.25;4.00;;;;;10.98;100.00;98653.28;6215802;28;96283;-58
2024/01/25 13:01:21;;;;;;;;;4.00;4.00;;;;;11.04;100.00;98646.97;6216043;28;96575;-58
2024/01/25 13:04:25;;;;;;;;;5.60;5.00;;;;;10.93;100.00;98653.16;6215156;28;96278;-57
2024/01/25 13:07:29;;;;;;;;;7.00;5.00;;;;;10.86;100.00;98653.25;6216057;28;96844;-58
2024/01/25 13:10:32;;;;;;;;;6.00;4.00;;;;;10.86;100.00;98674.00;6215398;28;97599;-58
2024/01/25 13:13:36;;;;;;;;;5.60;5.60;;;;;10.67;100.00;98662.44;6215300;28;96923;-58
2024/01/25 13:16:39;;;;;;;;;4.00;4.00;;;;;10.91;100.00;98673.31;6215322;28;96380;-58
2024/01/25 13:19:42;;;;;;;;;6.00;5.00;;;;;10.96;100.00;98681.53;6213251;28;97257;-58
2024/01/25 13:22:46;;;;;;;;;5.00;4.00;;;;;11.10;100.00;98683.81;6214333;28;96897;-58
2024/01/25 13:25:50;;;;;;;;;4.40;3.40;;;;;11.28;100.00;98691.88;6214299;28;96402;-58
2024/01/25 13:28:53;;;;;;;;;4.50;4.00;;;;;11.32;100.00;98684.13;6214902;28;96311;-58
2024/01/25 13:31:56;;;;;;;;;4.00;4.00;;;;;11.24;100.00;98682.56;6214999;28;97087;-58
2024/01/25 13:34:59;;;;;;;;;5.00;4.00;;;;;11.08;100.00;98706.69;6218645;28;96480;-58
2024/01/25 13:38:04;;;;;;;;;5.00;4.00;;;;;11.03;100.00;98687.66;6217084;27;96498;-57
2024/01/25 13:41:07;;;;;;;;;4.00;4.00;;;;;11.03;100.00;98703.84;6202924;28;97103;-58
2024/01/25 13:44:10;;;;;;;;;5.00;4.00;;;;;10.87;100.00;98683.72;6224050;28;96527;-58
2024/01/25 13:47:14;;;;;;;;;5.40;4.00;;;;;11.01;100.00;98695.16;6237014;28;96526;-58
2024/01/25 13:50:17;;;;;;;;;5.00;3.33;;;;;10.96;100.00;98703.13;6237303;28;98481;-58
2024/01/25 13:53:21;;;;;;;;;5.00;4.00;;;;;10.98;100.00;98701.84;6238192;28;96046;-56
2024/01/25 13:56:24;;;;;;;;;6.60;5.00;;;;;10.95;100.00;98699.59;6237558;28;96320;-57
2024/01/25 13:59:27;;;;;;;;;5.00;4.00;;;;;11.03;100.00;98706.56;6239144;28;96307;-58
2024/01/25 14:02:30;;;;;;;;;4.75;3.75;;;;;10.90;100.00;98698.66;6239252;28;96293;-57
2024/01/25 14:05:33;;;;;;;;;5.60;5.00;;;;;10.89;100.00;98713.19;6239776;28;96716;-58
2024/01/25 14:08:38;;;;;;;;;3.00;3.00;;;;;10.76;100.00;98701.50;6241096;28;96333;-58
2024/01/25 14:11:41;;;;;;;;;4.33;4.00;;;;;10.83;100.00;98713.03;6241520;28;97326;-59
2024/01/25 14:14:45;;;;;;;;;3.75;3.75;;;;;10.71;100.00;98682.50;6240975;28;96339;-59
2024/01/25 14:17:48;;;;;;;;;4.00;3.00;;;;;10.71;100.00;98704.06;6239976;28;96438;-59